Time;durP1;ratioP1;P1;durP2;ratioP2;P2;SDS_P1;SDS_P2;PMS_P1;PMS_P2;Temp;Humidity;BMP_temperature;BMP_pressure;BME280_temperature;BME280_humidity;BME280_pressure;Samples;Min_cycle;Max_cycle;Signal;HPM_P1;HPM_P2
2021/06/06 00:02:06;;;;;;;11.95;10.25;;;17.40;88.10;;;;;;5079589;28;20139;-69
2021/06/06 00:04:32;;;;;;;15.20;11.52;;;17.40;88.20;;;;;;5077683;28;20353;-69
2021/06/06 00:06:57;;;;;;;16.52;11.40;;;17.40;88.10;;;;;;5090346;28;20039;-69
2021/06/06 00:09:23;;;;;;;15.00;10.95;;;17.40;88.10;;;;;;5087386;28;20036;-73
2021/06/06 00:11:52;;;;;;;11.98;9.75;;;17.30;88.20;;;;;;5083488;28;20032;-70
2021/06/06 00:14:22;;;;;;;11.07;8.98;;;17.30;88.50;;;;;;5077848;28;20020;-71
2021/06/06 00:16:52;;;;;;;10.30;8.38;;;17.40;88.70;;;;;;5076796;28;20021;-70
2021/06/06 00:19:21;;;;;;;9.00;8.02;;;17.40;88.60;;;;;;5082600;28;20035;-70
2021/06/06 00:21:47;;;;;;;8.70;7.32;;;17.40;88.50;;;;;;5088919;28;20089;-70
2021/06/06 00:24:15;;;;;;;8.60;6.05;;;17.40;88.50;;;;;;5086084;28;20028;-70
2021/06/06 00:26:41;;;;;;;6.40;5.72;;;17.30;88.30;;;;;;5087882;28;20082;-71
2021/06/06 00:29:07;;;;;;;6.55;5.75;;;17.30;88.30;;;;;;5082792;28;20037;-69
2021/06/06 00:31:32;;;;;;;7.60;6.07;;;17.30;88.40;;;;;;5077119;28;20025;-69
2021/06/06 00:33:58;;;;;;;6.85;6.05;;;17.30;88.40;;;;;;5085852;28;20036;-73
2021/06/06 00:36:24;;;;;;;7.22;5.43;;;17.30;88.30;;;;;;5081055;28;20028;-69
2021/06/06 00:38:50;;;;;;;6.10;5.50;;;17.20;88.20;;;;;;5085035;28;20081;-73
2021/06/06 00:41:19;;;;;;;15.00;11.35;;;17.20;88.30;;;;;;5077642;28;20417;-73
2021/06/06 00:43:45;;;;;;;13.38;10.63;;;17.10;88.10;;;;;;5074116;28;20025;-72
2021/06/06 00:46:11;;;;;;;15.95;12.20;;;17.10;88.10;;;;;;5078885;28;20134;-70
2021/06/06 00:48:37;;;;;;;15.43;12.07;;;17.00;88.30;;;;;;5082154;28;20520;-71
2021/06/06 00:51:43;;;;;;;17.83;13.13;;;17.00;88.30;;;;;;5087233;28;20040;-72
2021/06/06 00:54:31;;;;;;;15.73;12.38;;;16.90;88.70;;;;;;5083471;28;20651;-73
2021/06/06 00:57:14;;;;;;;18.20;13.48;;;16.80;88.80;;;;;;5076808;28;20024;-71
2021/06/06 00:59:46;;;;;;;17.55;12.48;;;16.80;88.90;;;;;;5080640;28;20020;-70
2021/06/06 01:02:12;;;;;;;16.35;12.65;;;16.80;88.90;;;;;;5085695;28;20092;-69
2021/06/06 01:04:39;;;;;;;16.58;12.98;;;16.80;89.00;;;;;;5070594;28;20032;-69
2021/06/06 01:07:05;;;;;;;21.08;13.15;;;16.80;89.00;;;;;;5086408;28;20039;-69
2021/06/06 01:09:31;;;;;;;16.25;12.30;;;16.90;89.20;;;;;;5085349;28;20181;-70
2021/06/06 01:12:24;;;;;;;18.38;14.32;;;16.80;89.20;;;;;;5079978;28;20107;-69
2021/06/06 01:15:01;;;;;;;19.77;14.48;;;16.90;89.50;;;;;;5080419;28;20050;-69
2021/06/06 01:17:48;;;;;;;17.92;14.55;;;16.90;89.00;;;;;;5085004;28;20111;-69
2021/06/06 01:20:38;;;;;;;20.23;14.73;;;16.80;89.30;;;;;;5084438;28;20127;-72
2021/06/06 01:23:31;;;;;;;17.02;13.48;;;16.80;89.20;;;;;;5080455;28;20035;-70
2021/06/06 01:26:03;;;;;;;23.48;14.10;;;16.80;89.30;;;;;;5074494;28;20031;-70
2021/06/06 01:28:51;;;;;;;20.50;15.00;;;16.80;89.20;;;;;;5087898;28;20032;-70
2021/06/06 01:31:19;;;;;;;17.60;13.98;;;16.80;89.50;;;;;;5084213;28;20020;-69
2021/06/06 01:33:50;;;;;;;20.58;14.10;;;16.80;89.40;;;;;;5076533;28;20051;-70
2021/06/06 01:36:21;;;;;;;20.07;14.90;;;16.80;89.40;;;;;;5079373;28;20028;-73
2021/06/06 01:38:52;;;;;;;21.27;14.95;;;16.80;89.30;;;;;;5082160;28;20115;-70
2021/06/06 01:41:23;;;;;;;21.08;14.35;;;16.80;89.50;;;;;;5074070;28;20024;-72
2021/06/06 01:43:53;;;;;;;20.48;15.32;;;16.90;89.50;;;;;;5088248;28;20032;-68
2021/06/06 01:46:26;;;;;;;19.65;14.07;;;16.80;89.30;;;;;;5079103;28;20043;-73
2021/06/06 01:48:53;;;;;;;21.13;14.70;;;16.80;89.40;;;;;;5083787;28;20047;-69
2021/06/06 01:51:29;;;;;;;20.92;15.20;;;16.70;89.30;;;;;;5085962;28;20058;-68
2021/06/06 01:53:55;;;;;;;22.13;15.40;;;16.70;89.60;;;;;;5080642;28;20035;-69
2021/06/06 01:56:27;;;;;;;24.00;15.35;;;16.70;89.70;;;;;;5086155;28;20032;-72
2021/06/06 01:58:56;;;;;;;23.40;16.08;;;16.70;89.50;;;;;;5082012;28;20649;-71
2021/06/06 02:01:24;;;;;;;23.10;15.38;;;16.70;89.50;;;;;;5080434;28;20495;-69
2021/06/06 02:03:53;;;;;;;24.27;15.73;;;16.70;89.60;;;;;;5084991;28;20468;-73
2021/06/06 02:06:21;;;;;;;26.25;15.93;;;16.60;89.50;;;;;;5083063;28;21927;-68
2021/06/06 02:08:47;;;;;;;25.25;15.95;;;16.50;89.70;;;;;;5083552;28;20643;-72
2021/06/06 02:11:28;;;;;;;21.55;14.98;;;16.60;90.00;;;;;;5070547;28;20090;-69
2021/06/06 02:13:59;;;;;;;26.25;15.90;;;16.60;90.10;;;;;;5076498;28;20025;-69
2021/06/06 02:16:28;;;;;;;24.23;15.70;;;16.50;90.00;;;;;;5077081;28;20158;-69
2021/06/06 02:18:54;;;;;;;28.05;15.82;;;16.50;90.00;;;;;;5087405;28;20109;-69
2021/06/06 02:21:21;;;;;;;25.42;16.75;;;16.50;90.10;;;;;;5077006;28;20066;-69
2021/06/06 02:23:48;;;;;;;22.50;14.52;;;16.50;90.30;;;;;;5087047;28;20016;-69
2021/06/06 02:26:32;;;;;;;21.30;13.75;;;16.50;90.10;;;;;;5088090;28;20025;-69
2021/06/06 02:29:14;;;;;;;25.27;13.60;;;16.50;90.20;;;;;;5089754;28;20028;-69
2021/06/06 02:32:04;;;;;;;21.30;13.43;;;16.50;90.10;;;;;;5077865;28;20024;-71
2021/06/06 02:34:39;;;;;;;25.58;14.77;;;16.40;90.10;;;;;;5069610;28;20094;-72
2021/06/06 02:37:10;;;;;;;27.55;15.73;;;16.40;90.10;;;;;;5077996;28;20024;-69
2021/06/06 02:39:41;;;;;;;24.40;14.32;;;16.40;90.20;;;;;;5087382;28;20392;-68
2021/06/06 02:42:17;;;;;;;25.00;14.35;;;16.40;90.30;;;;;;5083548;28;20100;-69
2021/06/06 02:44:54;;;;;;;23.60;13.55;;;16.50;90.40;;;;;;5069477;28;20025;-69
2021/06/06 02:47:23;;;;;;;26.35;13.43;;;16.50;90.30;;;;;;5082929;28;20028;-69
2021/06/06 02:49:51;;;;;;;23.08;13.00;;;16.50;90.10;;;;;;5080578;28;20103;-69
2021/06/06 02:52:22;;;;;;;27.75;14.25;;;16.50;90.30;;;;;;5081963;28;20024;-69
2021/06/06 02:54:56;;;;;;;22.15;12.60;;;16.50;90.30;;;;;;5072481;28;20020;-69
2021/06/06 02:57:23;;;;;;;20.98;12.40;;;16.50;90.30;;;;;;5075531;28;20468;-69
2021/06/06 03:00:00;;;;;;;22.85;12.55;;;16.50;90.20;;;;;;5077478;28;20388;-69
2021/06/06 03:02:35;;;;;;;21.77;12.65;;;16.50;90.30;;;;;;5088864;28;20027;-69
2021/06/06 03:05:02;;;;;;;17.92;10.45;;;16.40;90.30;;;;;;5080392;28;20028;-71
2021/06/06 03:07:36;;;;;;;17.65;11.10;;;16.50;90.30;;;;;;5069125;28;20108;-69
2021/06/06 03:10:04;;;;;;;17.23;9.95;;;16.50;90.30;;;;;;5072901;28;20091;-69
2021/06/06 03:12:30;;;;;;;12.57;8.93;;;16.50;90.20;;;;;;5088029;28;20032;-68
2021/06/06 03:14:58;;;;;;;13.00;8.05;;;16.40;90.20;;;;;;5084048;28;20082;-69
2021/06/06 03:17:34;;;;;;;12.13;7.70;;;16.40;90.40;;;;;;5078233;28;20028;-69
2021/06/06 03:20:06;;;;;;;9.90;7.40;;;16.40;90.30;;;;;;5090667;28;20028;-69
2021/06/06 03:22:36;;;;;;;7.78;6.35;;;16.50;90.40;;;;;;5092465;28;20028;-69
2021/06/06 03:25:08;;;;;;;8.70;6.13;;;16.40;90.20;;;;;;5085190;28;20029;-72
2021/06/06 03:27:38;;;;;;;10.88;6.15;;;16.40;90.30;;;;;;5092153;28;20058;-70
2021/06/06 03:30:33;;;;;;;9.77;6.65;;;16.40;90.40;;;;;;5088521;28;20032;-70
2021/06/06 03:33:03;;;;;;;10.32;5.80;;;16.40;90.40;;;;;;5081050;28;20361;-69
2021/06/06 03:35:29;;;;;;;9.63;6.70;;;16.50;90.40;;;;;;5079266;28;20024;-69
2021/06/06 03:37:55;;;;;;;9.40;6.80;;;16.50;90.40;;;;;;5092395;28;20023;-69
2021/06/06 03:40:23;;;;;;;6.70;5.55;;;16.50;90.40;;;;;;5090888;28;20021;-69
2021/06/06 03:42:49;;;;;;;10.00;5.68;;;16.50;90.30;;;;;;5091468;28;20016;-69
2021/06/06 03:45:15;;;;;;;6.80;5.53;;;16.50;90.30;;;;;;5088407;28;20392;-69
2021/06/06 03:47:41;;;;;;;6.65;5.53;;;16.50;90.30;;;;;;5090494;28;20024;-69
2021/06/06 03:50:10;;;;;;;7.15;5.35;;;16.60;90.40;;;;;;5076351;28;20028;-70
2021/06/06 03:52:37;;;;;;;8.55;5.40;;;16.60;90.40;;;;;;5071807;22;20037;-71
2021/06/06 03:55:04;;;;;;;7.68;5.38;;;16.60;90.50;;;;;;5052420;28;20031;-71
2021/06/06 03:57:32;;;;;;;8.75;5.70;;;16.60;90.20;;;;;;5053536;28;20631;-70
2021/06/06 03:59:58;;;;;;;7.13;5.28;;;16.60;90.20;;;;;;5057290;28;20021;-71
2021/06/06 04:02:24;;;;;;;7.35;5.25;;;16.60;90.30;;;;;;5038596;28;20448;-71
2021/06/06 04:04:49;;;;;;;9.70;5.72;;;16.60;90.20;;;;;;5032596;28;20048;-71
2021/06/06 04:07:15;;;;;;;17.55;7.63;;;16.60;90.20;;;;;;5056383;28;20017;-71
2021/06/06 04:09:40;;;;;;;15.73;7.45;;;16.60;90.20;;;;;;5053223;28;20025;-71
2021/06/06 04:12:06;;;;;;;16.30;8.85;;;16.60;90.20;;;;;;5055992;28;20052;-71
2021/06/06 04:14:32;;;;;;;16.65;8.45;;;16.60;90.20;;;;;;5045904;28;20024;-71
2021/06/06 04:16:57;;;;;;;17.75;9.00;;;16.50;90.20;;;;;;5053430;28;20036;-71
2021/06/06 04:19:23;;;;;;;21.35;10.65;;;16.50;90.30;;;;;;5057775;28;20107;-71
2021/06/06 04:21:49;;;;;;;22.38;11.30;;;16.60;90.30;;;;;;5058547;28;20040;-71
2021/06/06 04:24:14;;;;;;;21.67;11.13;;;16.60;90.20;;;;;;5049537;28;20444;-71
2021/06/06 04:26:40;;;;;;;23.30;12.43;;;16.50;90.20;;;;;;5052474;28;20618;-71
2021/06/06 04:29:08;;;;;;;26.25;12.77;;;16.50;90.20;;;;;;5053941;28;20025;-71
2021/06/06 04:31:35;;;;;;;28.40;13.60;;;16.50;90.20;;;;;;5035734;28;20446;-71
2021/06/06 04:34:02;;;;;;;37.47;13.88;;;16.40;90.30;;;;;;5049337;28;20149;-71
2021/06/06 04:36:27;;;;;;;30.77;15.45;;;16.40;90.30;;;;;;5054729;28;20029;-71
2021/06/06 04:38:53;;;;;;;32.97;14.98;;;16.40;90.40;;;;;;5037782;28;20028;-71
2021/06/06 04:41:19;;;;;;;30.55;14.18;;;16.40;90.40;;;;;;5064083;28;20043;-71
2021/06/06 04:43:45;;;;;;;38.20;15.55;;;16.40;90.40;;;;;;5052270;28;20021;-71
2021/06/06 04:46:11;;;;;;;32.85;14.52;;;16.40;90.40;;;;;;5057544;28;20036;-71
2021/06/06 04:48:43;;;;;;;31.08;14.30;;;16.30;90.30;;;;;;5057132;28;20123;-71
2021/06/06 04:51:18;;;;;;;26.40;13.43;;;16.30;90.40;;;;;;5061358;28;20044;-71
2021/06/06 04:53:48;;;;;;;26.70;13.30;;;16.20;90.50;;;;;;5049913;28;20041;-70
2021/06/06 04:56:16;;;;;;;22.20;11.95;;;16.20;90.50;;;;;;5058216;28;20436;-70
2021/06/06 04:58:42;;;;;;;22.58;11.55;;;16.20;90.50;;;;;;5050581;28;20027;-70
2021/06/06 05:01:08;;;;;;;23.05;10.50;;;16.20;90.50;;;;;;5033797;28;20037;-71
2021/06/06 05:03:33;;;;;;;20.13;10.30;;;16.20;90.60;;;;;;5048651;28;20143;-71
2021/06/06 05:05:59;;;;;;;15.50;9.32;;;16.20;90.70;;;;;;5058809;28;20024;-71
2021/06/06 05:08:25;;;;;;;17.98;9.65;;;16.20;90.60;;;;;;5054440;28;20461;-70
2021/06/06 05:10:52;;;;;;;20.50;9.75;;;16.10;90.60;;;;;;5058831;28;20384;-71
2021/06/06 05:13:18;;;;;;;15.85;9.02;;;16.20;90.80;;;;;;5055400;28;20568;-70
2021/06/06 05:15:44;;;;;;;16.52;9.10;;;16.20;90.80;;;;;;5037163;28;20115;-70
2021/06/06 05:18:11;;;;;;;18.17;8.95;;;16.20;90.90;;;;;;5051987;28;20066;-70
2021/06/06 05:20:41;;;;;;;14.75;8.48;;;16.20;90.90;;;;;;5063456;28;20028;-70
2021/06/06 05:23:08;;;;;;;18.50;8.68;;;16.20;90.80;;;;;;5056092;28;20029;-70
2021/06/06 05:25:37;;;;;;;18.58;8.88;;;16.20;90.80;;;;;;5050963;28;20040;-70
2021/06/06 05:28:04;;;;;;;15.35;8.32;;;16.20;90.80;;;;;;5049905;28;20068;-70
2021/06/06 05:30:33;;;;;;;12.60;6.85;;;16.20;90.80;;;;;;5052488;28;20107;-70
2021/06/06 05:32:59;;;;;;;12.18;6.65;;;16.20;90.80;;;;;;5051457;28;20033;-70
2021/06/06 05:35:28;;;;;;;14.50;6.75;;;16.10;90.80;;;;;;5053568;28;20107;-70
2021/06/06 05:37:54;;;;;;;12.70;6.55;;;16.10;90.90;;;;;;5054898;28;20032;-70
2021/06/06 05:40:22;;;;;;;12.70;6.57;;;16.10;91.00;;;;;;5057983;28;20024;-70
2021/06/06 05:42:48;;;;;;;13.25;6.38;;;16.20;91.20;;;;;;5061589;28;20377;-70
2021/06/06 05:45:15;;;;;;;12.32;6.10;;;16.10;91.00;;;;;;5053339;28;20025;-70
2021/06/06 05:47:41;;;;;;;9.75;5.78;;;16.20;91.10;;;;;;5051795;28;20032;-71
2021/06/06 05:50:08;;;;;;;9.82;5.65;;;16.20;91.20;;;;;;5033304;28;20029;-70
2021/06/06 05:52:34;;;;;;;16.13;8.23;;;16.30;91.20;;;;;;5054333;28;20051;-70
2021/06/06 05:55:00;;;;;;;10.18;6.05;;;16.30;91.20;;;;;;5051164;28;20419;-70
2021/06/06 05:57:26;;;;;;;9.05;4.85;;;16.30;91.20;;;;;;5051434;28;20032;-70
2021/06/06 05:59:52;;;;;;;9.68;4.70;;;16.30;91.20;;;;;;5051261;28;20435;-70
2021/06/06 06:02:18;;;;;;;6.90;4.53;;;16.40;91.20;;;;;;5041023;28;20033;-71
2021/06/06 06:04:44;;;;;;;9.82;4.85;;;16.30;91.10;;;;;;5050359;28;20021;-71
2021/06/06 06:07:10;;;;;;;9.13;4.90;;;16.30;91.10;;;;;;5062592;28;20082;-70
2021/06/06 06:09:35;;;;;;;10.25;5.32;;;16.30;91.20;;;;;;5067845;28;20485;-70
2021/06/06 06:12:01;;;;;;;9.68;5.18;;;16.30;91.10;;;;;;5051620;28;20037;-70
2021/06/06 06:14:26;;;;;;;12.23;6.07;;;16.40;91.20;;;;;;5053870;28;20028;-70
2021/06/06 06:16:52;;;;;;;12.60;6.32;;;16.40;91.30;;;;;;5034654;28;20033;-70
2021/06/06 06:19:18;;;;;;;12.88;6.97;;;16.40;91.20;;;;;;5037596;28;20489;-70
2021/06/06 06:21:44;;;;;;;17.90;8.98;;;16.50;91.20;;;;;;5053915;28;20063;-71
2021/06/06 06:24:11;;;;;;;19.40;8.88;;;16.50;91.20;;;;;;5051846;28;20052;-71
2021/06/06 06:26:38;;;;;;;25.83;11.02;;;16.50;91.20;;;;;;5051680;28;20025;-71
2021/06/06 06:29:05;;;;;;;28.30;11.48;;;16.50;91.20;;;;;;5054198;28;20040;-71
2021/06/06 06:31:31;;;;;;;28.98;11.82;;;16.50;91.20;;;;;;5061552;28;20040;-70
2021/06/06 06:33:57;;;;;;;33.05;13.48;;;16.50;91.10;;;;;;5052759;28;20029;-71
2021/06/06 06:36:23;;;;;;;32.42;13.55;;;16.40;91.20;;;;;;5054448;28;20404;-71
2021/06/06 06:38:53;;;;;;;36.60;15.07;;;16.50;91.30;;;;;;5050490;28;20017;-71
2021/06/06 06:41:25;;;;;;;40.00;16.50;;;16.50;91.40;;;;;;5056225;28;20480;-71
2021/06/06 06:43:51;;;;;;;44.83;16.83;;;16.50;91.40;;;;;;5052007;28;20023;-71
2021/06/06 06:46:16;;;;;;;39.20;16.15;;;16.60;91.40;;;;;;5063332;28;20036;-71
2021/06/06 06:48:42;;;;;;;45.58;19.23;;;16.60;91.40;;;;;;5063542;28;20036;-68
2021/06/06 06:51:09;;;;;;;57.47;21.50;;;16.60;91.30;;;;;;5059831;28;20063;-67
2021/06/06 06:53:34;;;;;;;51.47;21.30;;;16.60;91.20;;;;;;5052623;28;20037;-68
2021/06/06 06:56:00;;;;;;;54.80;21.98;;;16.60;91.30;;;;;;5048606;28;20100;-68
2021/06/06 06:58:26;;;;;;;55.58;22.50;;;16.60;91.40;;;;;;5049350;28;20040;-68
2021/06/06 07:00:54;;;;;;;62.50;23.52;;;16.60;91.40;;;;;;5052419;28;20029;-70
2021/06/06 07:03:28;;;;;;;60.80;24.50;;;16.60;91.40;;;;;;5053769;28;20453;-70
2021/06/06 07:05:57;;;;;;;61.20;25.38;;;16.60;91.40;;;;;;5052488;28;20036;-70
2021/06/06 07:08:31;;;;;;;65.22;24.67;;;16.60;91.30;;;;;;5058239;28;20041;-73
2021/06/06 07:10:57;;;;;;;65.68;26.75;;;16.60;91.40;;;;;;5042360;28;20032;-70
2021/06/06 07:13:24;;;;;;;73.47;27.08;;;16.60;91.50;;;;;;5050826;28;20393;-70
2021/06/06 07:15:50;;;;;;;63.50;26.45;;;16.60;91.40;;;;;;5050260;28;20220;-70
2021/06/06 07:18:23;;;;;;;65.95;26.92;;;16.60;91.50;;;;;;5053432;28;20021;-71
2021/06/06 07:20:53;;;;;;;64.70;26.73;;;16.60;91.50;;;;;;5052355;28;20044;-70
2021/06/06 07:23:19;;;;;;;69.05;26.92;;;16.60;91.60;;;;;;5052845;28;20642;-70
2021/06/06 07:25:46;;;;;;;67.35;26.63;;;16.60;91.60;;;;;;5053453;28;20021;-70
2021/06/06 07:28:15;;;;;;;66.55;25.70;;;16.60;91.60;;;;;;5052428;28;20170;-70
2021/06/06 07:30:46;;;;;;;68.78;27.33;;;16.60;91.60;;;;;;5055621;28;20033;-71
2021/06/06 07:33:13;;;;;;;65.63;26.53;;;16.70;91.70;;;;;;5053240;28;20033;-70
2021/06/06 07:35:39;;;;;;;61.67;25.05;;;16.70;91.70;;;;;;5059690;28;20071;-70
2021/06/06 07:38:06;;;;;;;67.03;25.63;;;16.80;91.70;;;;;;5055849;28;20419;-70
2021/06/06 07:40:36;;;;;;;62.67;26.25;;;16.80;91.70;;;;;;5049247;28;20032;-70
2021/06/06 07:43:03;;;;;;;66.97;28.15;;;16.80;91.70;;;;;;5052111;28;20116;-70
2021/06/06 07:45:29;;;;;;;58.35;25.40;;;16.80;91.60;;;;;;5051861;28;20028;-70
2021/06/06 07:47:55;;;;;;;64.82;26.55;;;16.80;91.60;;;;;;5055307;28;20115;-70
2021/06/06 07:50:24;;;;;;;61.75;27.20;;;16.90;91.60;;;;;;5049856;28;20112;-70
2021/06/06 07:52:49;;;;;;;61.50;27.05;;;16.80;91.60;;;;;;5050974;28;20259;-70
2021/06/06 07:55:18;;;;;;;64.03;28.15;;;16.80;91.60;;;;;;5051359;28;20033;-70
2021/06/06 07:57:44;;;;;;;65.38;27.63;;;16.80;91.50;;;;;;5050550;28;20021;-70
2021/06/06 08:00:15;;;;;;;62.58;26.25;;;16.80;91.60;;;;;;5052519;28;20033;-70
2021/06/06 08:02:41;;;;;;;58.33;25.13;;;16.80;91.60;;;;;;5050402;28;20021;-70
2021/06/06 08:05:08;;;;;;;55.17;25.40;;;16.80;91.70;;;;;;5051076;28;20108;-70
2021/06/06 08:07:33;;;;;;;53.40;24.42;;;16.80;91.70;;;;;;5036265;28;20714;-70
2021/06/06 08:09:59;;;;;;;57.05;25.98;;;16.90;91.70;;;;;;5051378;28;20049;-70
2021/06/06 08:12:26;;;;;;;58.85;26.52;;;16.90;91.70;;;;;;5050037;28;20109;-71
2021/06/06 08:14:53;;;;;;;63.13;25.83;;;16.90;91.70;;;;;;5047613;28;20101;-70
2021/06/06 08:17:19;;;;;;;55.65;25.20;;;16.90;91.70;;;;;;5066088;28;20040;-70
2021/06/06 08:19:45;;;;;;;50.88;25.02;;;16.90;91.70;;;;;;5053827;28;20029;-70
2021/06/06 08:22:10;;;;;;;52.20;24.30;;;17.00;91.70;;;;;;5054222;28;20021;-71
2021/06/06 08:24:36;;;;;;;49.92;23.80;;;17.00;91.70;;;;;;5057033;28;20029;-71
2021/06/06 08:27:02;;;;;;;45.85;22.30;;;17.10;91.80;;;;;;5049956;28;20036;-71
2021/06/06 08:29:27;;;;;;;47.50;22.95;;;17.10;91.70;;;;;;5033568;28;20131;-70
2021/06/06 08:31:54;;;;;;;52.15;22.83;;;17.20;91.80;;;;;;5051366;28;20033;-70
2021/06/06 08:34:21;;;;;;;42.35;20.90;;;17.20;91.80;;;;;;5050269;28;20029;-71
2021/06/06 08:36:48;;;;;;;43.13;21.67;;;17.20;91.80;;;;;;5059149;28;20021;-70
2021/06/06 08:39:20;;;;;;;38.83;20.90;;;17.30;91.80;;;;;;5047445;28;20017;-70
2021/06/06 08:41:51;;;;;;;40.03;21.00;;;17.30;91.80;;;;;;5048722;28;20164;-70
2021/06/06 08:44:26;;;;;;;50.07;23.23;;;17.30;91.70;;;;;;5049936;28;20405;-66
2021/06/06 08:46:58;;;;;;;44.50;22.48;;;17.30;91.80;;;;;;5051351;28;20802;-70
2021/06/06 08:49:25;;;;;;;45.03;21.65;;;17.40;91.80;;;;;;5059323;28;20033;-71
2021/06/06 08:52:05;;;;;;;45.65;22.20;;;17.40;91.70;;;;;;5048538;28;20057;-70
2021/06/06 08:54:42;;;;;;;42.75;21.67;;;17.40;91.80;;;;;;5048259;28;20029;-70
2021/06/06 08:57:29;;;;;;;48.05;22.33;;;17.50;91.90;;;;;;5033516;28;20025;-70
2021/06/06 08:59:57;;;;;;;45.95;22.58;;;17.50;91.90;;;;;;5043499;28;20108;-70
2021/06/06 09:02:35;;;;;;;44.55;22.80;;;17.50;91.80;;;;;;5050375;28;20025;-70
2021/06/06 09:05:05;;;;;;;41.25;20.90;;;17.50;91.80;;;;;;5041750;28;20068;-70
2021/06/06 09:07:36;;;;;;;46.22;21.10;;;17.50;91.80;;;;;;5043034;28;20544;-71
2021/06/06 09:10:15;;;;;;;43.85;21.58;;;17.60;91.80;;;;;;5042134;28;20446;-71
2021/06/06 09:12:41;;;;;;;40.25;20.65;;;17.50;92.00;;;;;;5032887;28;20026;-70
2021/06/06 09:15:10;;;;;;;34.83;19.77;;;17.50;91.80;;;;;;5048090;28;20061;-70
2021/06/06 09:17:44;;;;;;;36.40;18.77;;;17.60;91.90;;;;;;5031298;28;20028;-70
2021/06/06 09:20:22;;;;;;;55.45;33.65;;;17.60;91.90;;;;;;5027429;28;20029;-70
2021/06/06 09:22:48;;;;;;;46.28;21.27;;;17.60;91.90;;;;;;5049565;28;20052;-70
2021/06/06 09:25:28;;;;;;;40.72;21.17;;;17.60;91.80;;;;;;5049062;28;20056;-70
2021/06/06 09:28:15;;;;;;;39.63;21.13;;;17.60;91.80;;;;;;5032342;28;20029;-70
2021/06/06 09:30:42;;;;;;;35.75;19.30;;;17.60;91.70;;;;;;5036218;28;20028;-70
2021/06/06 09:33:20;;;;;;;40.03;21.17;;;17.60;91.70;;;;;;5050334;28;20032;-70
2021/06/06 09:36:05;;;;;;;40.33;20.88;;;17.60;91.70;;;;;;5048109;28;20032;-71
2021/06/06 09:38:31;;;;;;;38.60;20.90;;;17.70;91.70;;;;;;5047284;28;20035;-70
2021/06/06 09:41:12;;;;;;;40.47;21.20;;;17.70;91.70;;;;;;5031933;28;20125;-70
2021/06/06 09:43:39;;;;;;;38.10;21.48;;;17.80;91.80;;;;;;5054882;28;20086;-70
2021/06/06 09:46:14;;;;;;;42.88;20.92;;;17.80;91.60;;;;;;5041033;28;20036;-72
2021/06/06 09:48:43;;;;;;;35.95;19.42;;;17.80;91.70;;;;;;5055115;28;20103;-70
2021/06/06 09:51:25;;;;;;;40.08;20.88;;;17.90;91.70;;;;;;5064468;22;20039;-69
2021/06/06 09:53:55;;;;;;;66.40;38.92;;;17.90;91.70;;;;;;5042383;28;20036;-69
2021/06/06 09:56:21;;;;;;;41.28;22.60;;;17.90;91.60;;;;;;5024397;28;20042;-69
2021/06/06 09:58:49;;;;;;;39.30;19.95;;;17.90;91.60;;;;;;5031179;28;20017;-69
2021/06/06 10:01:29;;;;;;;38.10;20.33;;;17.90;91.60;;;;;;5028068;28;20017;-69
2021/06/06 10:03:57;;;;;;;34.38;18.70;;;17.90;91.60;;;;;;5021211;28;20488;-69
2021/06/06 10:06:35;;;;;;;30.17;18.50;;;17.90;91.50;;;;;;5023784;28;20053;-69
2021/06/06 10:09:12;;;;;;;33.13;19.27;;;18.00;91.60;;;;;;5028011;28;20043;-69
2021/06/06 10:11:59;;;;;;;36.03;19.13;;;18.00;91.50;;;;;;5030414;28;20076;-69
2021/06/06 10:14:41;;;;;;;31.92;17.02;;;18.00;91.50;;;;;;5035495;28;20032;-69
2021/06/06 10:17:15;;;;;;;35.17;17.60;;;18.00;91.60;;;;;;5036819;28;20493;-70
2021/06/06 10:19:50;;;;;;;33.33;18.23;;;18.00;91.50;;;;;;5029931;28;20025;-69
2021/06/06 10:22:23;;;;;;;30.98;17.58;;;18.10;91.50;;;;;;5037312;28;20060;-69
2021/06/06 10:25:09;;;;;;;31.70;16.52;;;18.10;91.50;;;;;;5029302;28;20022;-68
2021/06/06 10:27:42;;;;;;;30.40;16.13;;;18.10;91.50;;;;;;5030368;28;20045;-68
2021/06/06 10:30:32;;;;;;;28.70;15.85;;;18.10;91.40;;;;;;5030517;28;20088;-68
2021/06/06 10:33:21;;;;;;;25.60;14.07;;;18.20;91.40;;;;;;5030292;28;20021;-70
2021/06/06 10:35:48;;;;;;;22.83;13.50;;;18.20;91.40;;;;;;5027446;28;20421;-69
2021/06/06 10:38:14;;;;;;;20.52;12.63;;;18.20;91.40;;;;;;5044256;28;20021;-70
2021/06/06 10:41:18;;;;;;;23.15;13.27;;;18.20;91.30;;;;;;5031045;28;20036;-71
2021/06/06 10:43:53;;;;;;;20.95;11.55;;;18.20;91.30;;;;;;4989157;28;20059;-71
2021/06/06 10:46:42;;;;;;;16.70;10.77;;;18.20;91.30;;;;;;5017473;28;20120;-70
2021/06/06 10:49:27;;;;;;;18.02;9.63;;;18.10;91.30;;;;;;5020778;28;20033;-70
2021/06/06 10:51:56;;;;;;;15.88;10.35;;;18.10;91.30;;;;;;5011812;28;20060;-70
2021/06/06 10:54:37;;;;;;;17.00;11.10;;;18.10;91.20;;;;;;5025622;28;20497;-70
2021/06/06 10:57:08;;;;;;;22.90;14.13;;;18.00;91.30;;;;;;5030031;28;20034;-68
2021/06/06 10:59:50;;;;;;;24.52;13.75;;;18.00;91.20;;;;;;5012418;28;20367;-70
2021/06/06 11:02:32;;;;;;;39.15;24.13;;;18.00;91.30;;;;;;5037115;28;20144;-70
2021/06/06 11:05:03;;;;;;;25.98;15.63;;;18.10;91.30;;;;;;5029751;28;20397;-70
2021/06/06 11:07:31;;;;;;;29.40;16.00;;;18.10;91.20;;;;;;5008698;28;20026;-70
2021/06/06 11:10:28;;;;;;;27.10;14.85;;;18.10;91.20;;;;;;4998098;28;20036;-71
2021/06/06 11:12:56;;;;;;;24.67;16.08;;;18.10;91.20;;;;;;5008475;28;20486;-70
2021/06/06 11:15:54;;;;;;;29.25;17.50;;;18.10;91.20;;;;;;5016829;28;20037;-68
2021/06/06 11:18:23;;;;;;;28.95;16.83;;;18.10;91.20;;;;;;5011488;28;20087;-68
2021/06/06 11:20:59;;;;;;;34.97;18.98;;;18.00;91.10;;;;;;5003294;28;20117;-71
2021/06/06 11:23:40;;;;;;;31.63;18.33;;;18.00;91.20;;;;;;5028231;28;20029;-69
2021/06/06 11:26:16;;;;;;;37.80;20.77;;;18.10;91.30;;;;;;5029030;28;20108;-71
2021/06/06 11:28:43;;;;;;;35.05;19.95;;;18.10;91.20;;;;;;5028643;28;20048;-71
2021/06/06 11:31:29;;;;;;;38.10;21.33;;;18.10;91.10;;;;;;5016690;28;20053;-71
2021/06/06 11:34:05;;;;;;;36.67;21.25;;;18.20;91.20;;;;;;5014373;28;20034;-68
2021/06/06 11:36:36;;;;;;;38.95;21.83;;;18.20;91.10;;;;;;5032764;28;20080;-71
2021/06/06 11:39:11;;;;;;;43.65;21.88;;;18.30;91.10;;;;;;5015894;28;20033;-72
2021/06/06 11:41:39;;;;;;;38.72;22.30;;;18.30;91.10;;;;;;5014506;28;20117;-72
2021/06/06 11:44:37;;;;;;;36.03;20.92;;;18.30;91.00;;;;;;4994956;28;20116;-68
2021/06/06 11:47:08;;;;;;;37.25;20.92;;;18.30;91.10;;;;;;5037801;28;20048;-71
2021/06/06 11:50:09;;;;;;;36.15;21.48;;;18.30;91.00;;;;;;5033646;28;20029;-71
2021/06/06 11:52:42;;;;;;;34.42;20.35;;;18.30;90.90;;;;;;5039817;28;20025;-71
2021/06/06 11:55:12;;;;;;;34.30;20.02;;;18.30;90.80;;;;;;5033002;28;20040;-71
2021/06/06 11:58:10;;;;;;;31.88;19.75;;;18.30;90.80;;;;;;5034439;28;20021;-71
2021/06/06 12:00:43;;;;;;;32.83;19.33;;;18.20;90.80;;;;;;5035559;28;20033;-71
2021/06/06 12:03:24;;;;;;;36.42;20.50;;;18.20;90.80;;;;;;5031981;28;20083;-70
2021/06/06 12:05:57;;;;;;;135.13;94.78;;;18.10;90.80;;;;;;5014985;28;20409;-72
2021/06/06 12:08:56;;;;;;;38.78;23.35;;;18.10;90.80;;;;;;5031234;28;20068;-71
2021/06/06 12:11:27;;;;;;;35.67;20.88;;;18.10;90.80;;;;;;5024247;28;20228;-68
2021/06/06 12:14:07;;;;;;;36.88;21.20;;;18.10;90.80;;;;;;5032563;28;20032;-73
2021/06/06 12:16:32;;;;;;;32.90;20.88;;;18.10;90.80;;;;;;5026012;28;20026;-70
2021/06/06 12:19:11;;;;;;;30.60;20.48;;;18.20;90.80;;;;;;5012854;28;20037;-71
2021/06/06 12:21:40;;;;;;;35.17;21.05;;;18.10;90.90;;;;;;5029680;28;20474;-70
2021/06/06 12:24:12;;;;;;;32.55;19.52;;;18.10;91.10;;;;;;5013836;28;20091;-70
2021/06/06 12:26:42;;;;;;;33.00;20.55;;;18.10;90.90;;;;;;5029290;28;20029;-67
2021/06/06 12:29:09;;;;;;;34.50;20.35;;;18.10;90.80;;;;;;5052273;28;20493;-68
2021/06/06 12:31:41;;;;;;;32.33;20.83;;;18.10;90.80;;;;;;5018221;28;20124;-68
2021/06/06 12:34:19;;;;;;;32.17;20.00;;;18.10;90.80;;;;;;5032853;28;20124;-68
2021/06/06 12:36:46;;;;;;;32.78;20.40;;;18.10;90.90;;;;;;5035403;28;20029;-68
2021/06/06 12:39:17;;;;;;;38.00;20.33;;;18.10;90.90;;;;;;5032361;28;20022;-69
2021/06/06 12:41:45;;;;;;;32.83;19.93;;;18.10;90.90;;;;;;5031439;28;20021;-69
2021/06/06 12:44:13;;;;;;;36.75;21.25;;;18.10;90.80;;;;;;5028856;28;20288;-67
2021/06/06 12:46:50;;;;;;;34.30;21.17;;;18.20;90.80;;;;;;5024181;28;20026;-68
2021/06/06 12:49:27;;;;;;;46.35;30.17;;;18.20;90.90;;;;;;5031596;28;20033;-70
2021/06/06 12:51:53;;;;;;;34.47;21.33;;;18.20;90.80;;;;;;5013001;28;20052;-68